sensor_id;sensor_type;location;lat;lon;timestamp;temperature;humidity
17202;DHT22;8717;53.588;10.176;2022-07-29T00:00:15;12.40;99.60
17202;DHT22;8717;53.588;10.176;2022-07-29T00:02:42;12.40;99.70
17202;DHT22;8717;53.588;10.176;2022-07-29T00:05:09;12.30;99.70
17202;DHT22;8717;53.588;10.176;2022-07-29T00:07:40;12.30;99.90
17202;DHT22;8717;53.588;10.176;2022-07-29T00:10:07;12.30;99.90
17202;DHT22;8717;53.588;10.176;2022-07-29T00:12:37;12.30;99.90
17202;DHT22;8717;53.588;10.176;2022-07-29T00:15:05;12.30;99.90
17202;DHT22;8717;53.588;10.176;2022-07-29T00:17:32;12.20;99.90
17202;DHT22;8717;53.588;10.176;2022-07-29T00:20:00;12.10;99.90
17202;DHT22;8717;53.588;10.176;2022-07-29T00:22:26;12.20;99.90
17202;DHT22;8717;53.588;10.176;2022-07-29T00:24:55;12.20;99.90
17202;DHT22;8717;53.588;10.176;2022-07-29T00:27:22;12.10;99.90
17202;DHT22;8717;53.588;10.176;2022-07-29T00:29:49;12.10;99.90
17202;DHT22;8717;53.588;10.176;2022-07-29T00:32:15;12.00;99.90
17202;DHT22;8717;53.588;10.176;2022-07-29T00:34:42;12.00;99.90
17202;DHT22;8717;53.588;10.176;2022-07-29T00:37:26;12.00;99.90
17202;DHT22;8717;53.588;10.176;2022-07-29T00:39:54;11.90;99.90
17202;DHT22;8717;53.588;10.176;2022-07-29T00:42:21;11.90;99.90
17202;DHT22;8717;53.588;10.176;2022-07-29T00:44:48;11.80;99.90
17202;DHT22;8717;53.588;10.176;2022-07-29T00:47:15;11.80;99.90
17202;DHT22;8717;53.588;10.176;2022-07-29T00:49:42;11.80;99.90
17202;DHT22;8717;53.588;10.176;2022-07-29T00:52:11;11.70;99.90
17202;DHT22;8717;53.588;10.176;2022-07-29T00:54:38;11.70;99.90
17202;DHT22;8717;53.588;10.176;2022-07-29T00:57:07;11.70;99.90
17202;DHT22;8717;53.588;10.176;2022-07-29T00:59:34;11.70;99.90
17202;DHT22;8717;53.588;10.176;2022-07-29T01:02:01;11.70;99.90
17202;DHT22;8717;53.588;10.176;2022-07-29T01:04:28;11.60;99.90
17202;DHT22;8717;53.588;10.176;2022-07-29T01:06:55;11.60;99.90
17202;DHT22;8717;53.588;10.176;2022-07-29T01:09:22;11.60;99.90
17202;DHT22;8717;53.588;10.176;2022-07-29T01:11:50;11.60;99.90
17202;DHT22;8717;53.588;10.176;2022-07-29T01:14:18;11.40;99.90
17202;DHT22;8717;53.588;10.176;2022-07-29T01:16:51;11.50;99.90
17202;DHT22;8717;53.588;10.176;2022-07-29T01:19:36;11.50;99.90
17202;DHT22;8717;53.588;10.176;2022-07-29T01:22:19;11.50;99.90
17202;DHT22;8717;53.588;10.176;2022-07-29T01:25:03;11.50;99.90
17202;DHT22;8717;53.588;10.176;2022-07-29T01:27:41;11.50;99.90
17202;DHT22;8717;53.588;10.176;2022-07-29T01:30:12;11.50;99.90
17202;DHT22;8717;53.588;10.176;2022-07-29T01:32:41;11.50;99.90
17202;DHT22;8717;53.588;10.176;2022-07-29T01:35:15;11.40;99.90
17202;DHT22;8717;53.588;10.176;2022-07-29T01:37:46;11.50;99.90
17202;DHT22;8717;53.588;10.176;2022-07-29T01:40:20;11.40;99.90
17202;DHT22;8717;53.588;10.176;2022-07-29T01:42:51;11.50;99.90
17202;DHT22;8717;53.588;10.176;2022-07-29T01:45:23;11.50;99.90
17202;DHT22;8717;53.588;10.176;2022-07-29T01:47:58;11.50;99.90
17202;DHT22;8717;53.588;10.176;2022-07-29T01:50:30;11.50;99.90
17202;DHT22;8717;53.588;10.176;2022-07-29T01:53:00;11.50;99.90
17202;DHT22;8717;53.588;10.176;2022-07-29T01:55:31;11.50;99.90
17202;DHT22;8717;53.588;10.176;2022-07-29T01:58:00;11.50;99.90
17202;DHT22;8717;53.588;10.176;2022-07-29T02:00:30;11.60;99.90
17202;DHT22;8717;53.588;10.176;2022-07-29T02:02:59;11.50;99.90
17202;DHT22;8717;53.588;10.176;2022-07-29T02:05:28;11.50;99.90
17202;DHT22;8717;53.588;10.176;2022-07-29T02:07:58;11.60;99.90
17202;DHT22;8717;53.588;10.176;2022-07-29T02:10:28;11.60;99.90
17202;DHT22;8717;53.588;10.176;2022-07-29T02:12:57;11.60;99.90
17202;DHT22;8717;53.588;10.176;2022-07-29T02:15:27;11.60;99.90
17202;DHT22;8717;53.588;10.176;2022-07-29T02:17:59;11.60;99.90
17202;DHT22;8717;53.588;10.176;2022-07-29T02:20:28;11.70;99.90
17202;DHT22;8717;53.588;10.176;2022-07-29T02:22:56;11.70;99.90
17202;DHT22;8717;53.588;10.176;2022-07-29T02:25:24;11.60;99.90
17202;DHT22;8717;53.588;10.176;2022-07-29T02:27:52;11.60;99.90
17202;DHT22;8717;53.588;10.176;2022-07-29T02:30:21;11.70;99.90
17202;DHT22;8717;53.588;10.176;2022-07-29T02:32:49;11.70;99.90
17202;DHT22;8717;53.588;10.176;2022-07-29T02:35:21;11.70;99.90
17202;DHT22;8717;53.588;10.176;2022-07-29T02:37:48;11.70;99.90
17202;DHT22;8717;53.588;10.176;2022-07-29T02:40:31;11.70;99.90
17202;DHT22;8717;53.588;10.176;2022-07-29T02:42:59;11.60;99.90
17202;DHT22;8717;53.588;10.176;2022-07-29T02:45:27;11.70;99.90
17202;DHT22;8717;53.588;10.176;2022-07-29T02:47:56;11.70;99.90
17202;DHT22;8717;53.588;10.176;2022-07-29T02:50:31;11.70;99.90
17202;DHT22;8717;53.588;10.176;2022-07-29T02:53:02;11.70;99.90
17202;DHT22;8717;53.588;10.176;2022-07-29T02:55:33;11.70;99.90
17202;DHT22;8717;53.588;10.176;2022-07-29T02:58:02;11.70;99.90
17202;DHT22;8717;53.588;10.176;2022-07-29T03:00:31;11.70;99.90
17202;DHT22;8717;53.588;10.176;2022-07-29T03:03:01;11.70;99.90
17202;DHT22;8717;53.588;10.176;2022-07-29T03:05:32;11.70;99.90
17202;DHT22;8717;53.588;10.176;2022-07-29T03:08:01;11.60;99.90
17202;DHT22;8717;53.588;10.176;2022-07-29T03:10:29;11.70;99.90
17202;DHT22;8717;53.588;10.176;2022-07-29T03:12:57;11.70;99.90
17202;DHT22;8717;53.588;10.176;2022-07-29T03:15:25;11.70;99.90
17202;DHT22;8717;53.588;10.176;2022-07-29T03:17:52;11.70;99.90
17202;DHT22;8717;53.588;10.176;2022-07-29T03:20:19;11.70;99.90
17202;DHT22;8717;53.588;10.176;2022-07-29T03:22:48;11.70;99.90
17202;DHT22;8717;53.588;10.176;2022-07-29T03:25:16;11.70;99.90
17202;DHT22;8717;53.588;10.176;2022-07-29T03:27:44;11.70;99.90
17202;DHT22;8717;53.588;10.176;2022-07-29T03:30:12;11.70;99.90
17202;DHT22;8717;53.588;10.176;2022-07-29T03:32:40;11.70;99.90
17202;DHT22;8717;53.588;10.176;2022-07-29T03:35:08;11.80;99.90
17202;DHT22;8717;53.588;10.176;2022-07-29T03:37:35;11.80;99.90
17202;DHT22;8717;53.588;10.176;2022-07-29T03:40:11;11.80;99.90
17202;DHT22;8717;53.588;10.176;2022-07-29T03:42:40;11.80;99.90
17202;DHT22;8717;53.588;10.176;2022-07-29T03:45:12;11.90;99.90
17202;DHT22;8717;53.588;10.176;2022-07-29T03:47:44;11.90;99.90
17202;DHT22;8717;53.588;10.176;2022-07-29T03:50:14;12.00;99.90
17202;DHT22;8717;53.588;10.176;2022-07-29T03:52:42;11.90;99.90
17202;DHT22;8717;53.588;10.176;2022-07-29T03:55:11;12.00;99.90
17202;DHT22;8717;53.588;10.176;2022-07-29T03:57:41;12.00;99.90
17202;DHT22;8717;53.588;10.176;2022-07-29T04:00:08;12.00;99.90
17202;DHT22;8717;53.588;10.176;2022-07-29T04:02:36;12.00;99.90
17202;DHT22;8717;53.588;10.176;2022-07-29T04:05:04;12.00;99.90
17202;DHT22;8717;53.588;10.176;2022-07-29T04:07:31;12.10;99.90
17202;DHT22;8717;53.588;10.176;2022-07-29T04:09:58;12.10;99.90
17202;DHT22;8717;53.588;10.176;2022-07-29T04:12:26;12.10;99.90
17202;DHT22;8717;53.588;10.176;2022-07-29T04:14:53;12.20;99.90
17202;DHT22;8717;53.588;10.176;2022-07-29T04:17:20;12.30;99.90
17202;DHT22;8717;53.588;10.176;2022-07-29T04:19:46;12.30;99.90
17202;DHT22;8717;53.588;10.176;2022-07-29T04:22:13;12.30;99.90
17202;DHT22;8717;53.588;10.176;2022-07-29T04:24:40;12.40;99.90
17202;DHT22;8717;53.588;10.176;2022-07-29T04:27:07;12.40;99.90
17202;DHT22;8717;53.588;10.176;2022-07-29T04:29:35;12.40;99.90
17202;DHT22;8717;53.588;10.176;2022-07-29T04:32:02;12.50;99.90
17202;DHT22;8717;53.588;10.176;2022-07-29T04:34:29;12.50;99.90
17202;DHT22;8717;53.588;10.176;2022-07-29T04:36:55;12.50;99.90
17202;DHT22;8717;53.588;10.176;2022-07-29T04:39:22;12.70;99.90
17202;DHT22;8717;53.588;10.176;2022-07-29T04:41:49;12.60;99.90
17202;DHT22;8717;53.588;10.176;2022-07-29T04:44:16;12.70;99.90
17202;DHT22;8717;53.588;10.176;2022-07-29T04:46:45;12.80;99.90
17202;DHT22;8717;53.588;10.176;2022-07-29T04:49:12;12.90;99.90
17202;DHT22;8717;53.588;10.176;2022-07-29T04:51:38;12.90;99.90
17202;DHT22;8717;53.588;10.176;2022-07-29T04:54:05;13.00;99.90
17202;DHT22;8717;53.588;10.176;2022-07-29T04:56:33;13.10;99.90
17202;DHT22;8717;53.588;10.176;2022-07-29T04:59:00;13.10;99.90
17202;DHT22;8717;53.588;10.176;2022-07-29T05:01:26;13.20;99.90
17202;DHT22;8717;53.588;10.176;2022-07-29T05:03:55;13.30;99.90
17202;DHT22;8717;53.588;10.176;2022-07-29T05:06:21;13.40;99.90
17202;DHT22;8717;53.588;10.176;2022-07-29T05:08:48;13.40;99.90
17202;DHT22;8717;53.588;10.176;2022-07-29T05:11:15;13.50;99.90
17202;DHT22;8717;53.588;10.176;2022-07-29T05:13:42;13.60;99.90
17202;DHT22;8717;53.588;10.176;2022-07-29T05:16:09;13.60;99.90
17202;DHT22;8717;53.588;10.176;2022-07-29T05:18:35;13.70;99.90
17202;DHT22;8717;53.588;10.176;2022-07-29T05:21:03;13.90;99.90
17202;DHT22;8717;53.588;10.176;2022-07-29T05:23:30;13.90;99.90
17202;DHT22;8717;53.588;10.176;2022-07-29T05:25:57;14.00;99.90
17202;DHT22;8717;53.588;10.176;2022-07-29T05:28:24;14.10;99.90
17202;DHT22;8717;53.588;10.176;2022-07-29T05:30:51;14.20;99.90
17202;DHT22;8717;53.588;10.176;2022-07-29T05:33:18;14.30;99.90
17202;DHT22;8717;53.588;10.176;2022-07-29T05:35:44;14.40;99.90
17202;DHT22;8717;53.588;10.176;2022-07-29T05:38:13;14.50;99.90
17202;DHT22;8717;53.588;10.176;2022-07-29T05:40:39;14.50;99.90
17202;DHT22;8717;53.588;10.176;2022-07-29T05:43:06;14.60;99.90
17202;DHT22;8717;53.588;10.176;2022-07-29T05:45:33;14.70;99.90
17202;DHT22;8717;53.588;10.176;2022-07-29T05:48:00;14.90;99.90
17202;DHT22;8717;53.588;10.176;2022-07-29T05:50:26;15.00;99.90
17202;DHT22;8717;53.588;10.176;2022-07-29T05:52:53;15.10;99.90
17202;DHT22;8717;53.588;10.176;2022-07-29T05:55:21;15.20;99.90
17202;DHT22;8717;53.588;10.176;2022-07-29T05:57:48;15.30;99.90
17202;DHT22;8717;53.588;10.176;2022-07-29T06:00:15;15.40;99.90
17202;DHT22;8717;53.588;10.176;2022-07-29T06:02:42;15.40;99.90
17202;DHT22;8717;53.588;10.176;2022-07-29T06:05:09;15.50;99.90
17202;DHT22;8717;53.588;10.176;2022-07-29T06:07:36;15.70;99.90
17202;DHT22;8717;53.588;10.176;2022-07-29T06:10:03;15.80;99.90
17202;DHT22;8717;53.588;10.176;2022-07-29T06:12:31;15.80;99.90
17202;DHT22;8717;53.588;10.176;2022-07-29T06:14:58;15.90;99.90
17202;DHT22;8717;53.588;10.176;2022-07-29T06:17:25;16.10;99.90
17202;DHT22;8717;53.588;10.176;2022-07-29T06:19:52;16.10;99.90
17202;DHT22;8717;53.588;10.176;2022-07-29T06:22:18;16.20;99.80
17202;DHT22;8717;53.588;10.176;2022-07-29T06:24:45;16.30;99.70
17202;DHT22;8717;53.588;10.176;2022-07-29T06:27:12;16.40;99.70
17202;DHT22;8717;53.588;10.176;2022-07-29T06:29:40;16.50;99.40
17202;DHT22;8717;53.588;10.176;2022-07-29T06:32:07;16.50;99.40
17202;DHT22;8717;53.588;10.176;2022-07-29T06:34:34;16.70;99.60
17202;DHT22;8717;53.588;10.176;2022-07-29T06:37:05;16.70;99.50
17202;DHT22;8717;53.588;10.176;2022-07-29T06:39:33;16.90;99.50
17202;DHT22;8717;53.588;10.176;2022-07-29T06:42:00;17.00;99.30
17202;DHT22;8717;53.588;10.176;2022-07-29T06:44:28;17.20;99.20
17202;DHT22;8717;53.588;10.176;2022-07-29T06:46:56;17.30;99.00
17202;DHT22;8717;53.588;10.176;2022-07-29T06:49:23;17.40;98.60
17202;DHT22;8717;53.588;10.176;2022-07-29T06:51:51;17.50;98.60
17202;DHT22;8717;53.588;10.176;2022-07-29T06:54:18;17.60;98.60
17202;DHT22;8717;53.588;10.176;2022-07-29T06:56:45;17.70;98.70
17202;DHT22;8717;53.588;10.176;2022-07-29T06:59:12;17.90;98.40
17202;DHT22;8717;53.588;10.176;2022-07-29T07:01:41;18.00;98.10
17202;DHT22;8717;53.588;10.176;2022-07-29T07:04:10;18.20;97.90
17202;DHT22;8717;53.588;10.176;2022-07-29T07:06:37;18.30;97.80
17202;DHT22;8717;53.588;10.176;2022-07-29T07:09:04;18.50;97.80
17202;DHT22;8717;53.588;10.176;2022-07-29T07:11:31;18.60;97.50
17202;DHT22;8717;53.588;10.176;2022-07-29T07:13:58;18.80;97.30
17202;DHT22;8717;53.588;10.176;2022-07-29T07:16:25;18.90;97.20
17202;DHT22;8717;53.588;10.176;2022-07-29T07:18:51;19.20;97.00
17202;DHT22;8717;53.588;10.176;2022-07-29T07:21:20;19.40;96.60
17202;DHT22;8717;53.588;10.176;2022-07-29T07:23:46;19.60;96.10
17202;DHT22;8717;53.588;10.176;2022-07-29T07:26:13;19.70;95.90
17202;DHT22;8717;53.588;10.176;2022-07-29T07:28:40;19.70;95.50
17202;DHT22;8717;53.588;10.176;2022-07-29T07:31:07;19.80;95.10
17202;DHT22;8717;53.588;10.176;2022-07-29T07:33:33;19.80;95.00
17202;DHT22;8717;53.588;10.176;2022-07-29T07:36:00;19.80;95.10
17202;DHT22;8717;53.588;10.176;2022-07-29T07:38:28;19.90;95.20
17202;DHT22;8717;53.588;10.176;2022-07-29T07:40:55;20.00;95.20
17202;DHT22;8717;53.588;10.176;2022-07-29T07:43:22;20.00;95.10
17202;DHT22;8717;53.588;10.176;2022-07-29T07:45:49;20.10;94.80
17202;DHT22;8717;53.588;10.176;2022-07-29T07:48:15;20.20;94.40
17202;DHT22;8717;53.588;10.176;2022-07-29T07:50:42;20.40;94.30
17202;DHT22;8717;53.588;10.176;2022-07-29T07:53:09;20.40;94.10
17202;DHT22;8717;53.588;10.176;2022-07-29T07:55:41;20.50;94.00
17202;DHT22;8717;53.588;10.176;2022-07-29T07:58:08;20.60;93.80
17202;DHT22;8717;53.588;10.176;2022-07-29T08:00:35;20.70;93.90
17202;DHT22;8717;53.588;10.176;2022-07-29T08:03:01;20.90;93.50
17202;DHT22;8717;53.588;10.176;2022-07-29T08:05:28;21.00;93.30
17202;DHT22;8717;53.588;10.176;2022-07-29T08:07:55;21.10;93.30
17202;DHT22;8717;53.588;10.176;2022-07-29T08:10:22;21.20;93.10
17202;DHT22;8717;53.588;10.176;2022-07-29T08:13:05;21.20;93.10
17202;DHT22;8717;53.588;10.176;2022-07-29T08:15:32;21.40;92.80
17202;DHT22;8717;53.588;10.176;2022-07-29T08:17:59;21.70;93.10
17202;DHT22;8717;53.588;10.176;2022-07-29T08:20:26;22.00;92.70
17202;DHT22;8717;53.588;10.176;2022-07-29T08:22:53;22.30;92.50
17202;DHT22;8717;53.588;10.176;2022-07-29T08:25:20;22.70;92.30
17202;DHT22;8717;53.588;10.176;2022-07-29T08:27:47;23.20;91.70
17202;DHT22;8717;53.588;10.176;2022-07-29T08:30:15;23.80;91.10
17202;DHT22;8717;53.588;10.176;2022-07-29T08:32:42;24.30;90.20
17202;DHT22;8717;53.588;10.176;2022-07-29T08:35:09;24.80;88.70
17202;DHT22;8717;53.588;10.176;2022-07-29T08:37:35;25.20;84.80
17202;DHT22;8717;53.588;10.176;2022-07-29T08:40:03;25.50;83.90
17202;DHT22;8717;53.588;10.176;2022-07-29T08:42:31;25.50;83.30
17202;DHT22;8717;53.588;10.176;2022-07-29T08:44:58;25.60;84.10
17202;DHT22;8717;53.588;10.176;2022-07-29T08:47:27;25.80;83.40
17202;DHT22;8717;53.588;10.176;2022-07-29T08:49:54;26.10;80.30
17202;DHT22;8717;53.588;10.176;2022-07-29T08:52:21;26.30;81.00
17202;DHT22;8717;53.588;10.176;2022-07-29T08:54:50;26.40;81.00
17202;DHT22;8717;53.588;10.176;2022-07-29T08:57:18;26.60;80.70
17202;DHT22;8717;53.588;10.176;2022-07-29T08:59:48;26.90;79.60
17202;DHT22;8717;53.588;10.176;2022-07-29T09:02:20;27.10;77.90
17202;DHT22;8717;53.588;10.176;2022-07-29T09:04:48;27.40;77.40
17202;DHT22;8717;53.588;10.176;2022-07-29T09:07:17;27.80;76.10
17202;DHT22;8717;53.588;10.176;2022-07-29T09:09:44;28.10;74.10
17202;DHT22;8717;53.588;10.176;2022-07-29T09:12:11;28.30;74.60
17202;DHT22;8717;53.588;10.176;2022-07-29T09:14:39;28.60;73.00
17202;DHT22;8717;53.588;10.176;2022-07-29T09:17:07;28.80;72.70
17202;DHT22;8717;53.588;10.176;2022-07-29T09:19:36;29.00;71.70
17202;DHT22;8717;53.588;10.176;2022-07-29T09:22:06;29.30;71.50
17202;DHT22;8717;53.588;10.176;2022-07-29T09:24:39;29.60;69.70
17202;DHT22;8717;53.588;10.176;2022-07-29T09:27:09;30.10;69.00
17202;DHT22;8717;53.588;10.176;2022-07-29T09:29:36;30.40;67.90
17202;DHT22;8717;53.588;10.176;2022-07-29T09:32:08;30.80;65.80
17202;DHT22;8717;53.588;10.176;2022-07-29T09:34:36;30.90;64.00
17202;DHT22;8717;53.588;10.176;2022-07-29T09:37:05;31.00;64.60
17202;DHT22;8717;53.588;10.176;2022-07-29T09:39:34;31.20;62.30
17202;DHT22;8717;53.588;10.176;2022-07-29T09:42:03;31.40;61.90
17202;DHT22;8717;53.588;10.176;2022-07-29T09:44:41;31.70;60.70
17202;DHT22;8717;53.588;10.176;2022-07-29T09:47:08;31.80;59.10
17202;DHT22;8717;53.588;10.176;2022-07-29T09:49:50;31.70;57.90
17202;DHT22;8717;53.588;10.176;2022-07-29T09:52:19;31.50;57.00
17202;DHT22;8717;53.588;10.176;2022-07-29T09:54:46;31.20;55.90
17202;DHT22;8717;53.588;10.176;2022-07-29T09:57:24;30.80;56.20
17202;DHT22;8717;53.588;10.176;2022-07-29T09:59:58;30.50;56.60
17202;DHT22;8717;53.588;10.176;2022-07-29T10:02:30;30.20;57.10
17202;DHT22;8717;53.588;10.176;2022-07-29T10:04:57;30.10;57.60
17202;DHT22;8717;53.588;10.176;2022-07-29T10:07:26;29.90;57.60
17202;DHT22;8717;53.588;10.176;2022-07-29T10:09:54;29.90;57.40
17202;DHT22;8717;53.588;10.176;2022-07-29T10:12:22;29.80;57.50
17202;DHT22;8717;53.588;10.176;2022-07-29T10:14:49;29.80;58.00
17202;DHT22;8717;53.588;10.176;2022-07-29T10:17:18;29.90;57.50
17202;DHT22;8717;53.588;10.176;2022-07-29T10:19:46;29.90;56.90
17202;DHT22;8717;53.588;10.176;2022-07-29T10:22:14;29.90;57.30
17202;DHT22;8717;53.588;10.176;2022-07-29T10:24:42;29.90;56.90
17202;DHT22;8717;53.588;10.176;2022-07-29T10:27:09;29.80;56.60
17202;DHT22;8717;53.588;10.176;2022-07-29T10:29:36;29.70;56.40
17202;DHT22;8717;53.588;10.176;2022-07-29T10:35:01;29.30;56.10
17202;DHT22;8717;53.588;10.176;2022-07-29T10:37:38;29.20;56.50
17202;DHT22;8717;53.588;10.176;2022-07-29T10:40:17;29.00;56.40
17202;DHT22;8717;53.588;10.176;2022-07-29T10:43:14;28.80;56.90
17202;DHT22;8717;53.588;10.176;2022-07-29T10:45:43;28.70;57.80
17202;DHT22;8717;53.588;10.176;2022-07-29T10:48:10;28.60;57.70
17202;DHT22;8717;53.588;10.176;2022-07-29T10:50:54;28.60;58.00
17202;DHT22;8717;53.588;10.176;2022-07-29T10:53:21;28.70;57.60
17202;DHT22;8717;53.588;10.176;2022-07-29T10:55:50;28.80;57.50
17202;DHT22;8717;53.588;10.176;2022-07-29T10:58:19;28.80;57.50
17202;DHT22;8717;53.588;10.176;2022-07-29T11:00:46;28.80;57.50
17202;DHT22;8717;53.588;10.176;2022-07-29T11:03:43;28.80;57.60
17202;DHT22;8717;53.588;10.176;2022-07-29T11:06:11;28.90;57.60
17202;DHT22;8717;53.588;10.176;2022-07-29T11:08:38;29.10;57.80
17202;DHT22;8717;53.588;10.176;2022-07-29T11:11:33;29.10;57.80
17202;DHT22;8717;53.588;10.176;2022-07-29T11:14:02;29.30;58.30
17202;DHT22;8717;53.588;10.176;2022-07-29T11:16:59;29.40;56.50
17202;DHT22;8717;53.588;10.176;2022-07-29T11:19:27;29.40;56.60
17202;DHT22;8717;53.588;10.176;2022-07-29T11:21:54;29.40;56.00
17202;DHT22;8717;53.588;10.176;2022-07-29T11:24:23;29.40;55.80
17202;DHT22;8717;53.588;10.176;2022-07-29T11:27:16;29.50;56.30
17202;DHT22;8717;53.588;10.176;2022-07-29T11:29:53;29.50;56.00
17202;DHT22;8717;53.588;10.176;2022-07-29T11:32:22;29.70;55.20
17202;DHT22;8717;53.588;10.176;2022-07-29T11:35:09;29.90;54.80
17202;DHT22;8717;53.588;10.176;2022-07-29T11:37:36;30.00;54.70
17202;DHT22;8717;53.588;10.176;2022-07-29T11:40:15;30.00;54.20
17202;DHT22;8717;53.588;10.176;2022-07-29T11:42:53;30.10;53.80
17202;DHT22;8717;53.588;10.176;2022-07-29T11:45:22;30.10;53.90
17202;DHT22;8717;53.588;10.176;2022-07-29T11:47:55;30.20;53.80
17202;DHT22;8717;53.588;10.176;2022-07-29T11:50:29;30.30;54.70
17202;DHT22;8717;53.588;10.176;2022-07-29T11:53:10;30.50;54.20
17202;DHT22;8717;53.588;10.176;2022-07-29T11:55:40;30.80;53.50
17202;DHT22;8717;53.588;10.176;2022-07-29T11:58:10;31.10;52.80
17202;DHT22;8717;53.588;10.176;2022-07-29T12:00:39;31.20;52.10
17202;DHT22;8717;53.588;10.176;2022-07-29T12:03:08;31.20;52.00
17202;DHT22;8717;53.588;10.176;2022-07-29T12:05:40;31.20;51.80
17202;DHT22;8717;53.588;10.176;2022-07-29T12:08:18;31.20;51.30
17202;DHT22;8717;53.588;10.176;2022-07-29T12:10:46;31.20;50.90
17202;DHT22;8717;53.588;10.176;2022-07-29T12:13:16;31.20;51.40
17202;DHT22;8717;53.588;10.176;2022-07-29T12:15:52;31.10;50.90
17202;DHT22;8717;53.588;10.176;2022-07-29T12:18:20;31.10;50.90
17202;DHT22;8717;53.588;10.176;2022-07-29T12:20:47;31.30;51.30
17202;DHT22;8717;53.588;10.176;2022-07-29T12:23:14;31.50;51.00
17202;DHT22;8717;53.588;10.176;2022-07-29T12:25:43;31.80;50.30
17202;DHT22;8717;53.588;10.176;2022-07-29T12:28:12;32.10;50.00
17202;DHT22;8717;53.588;10.176;2022-07-29T12:30:47;32.30;49.90
17202;DHT22;8717;53.588;10.176;2022-07-29T12:33:17;32.60;49.30
17202;DHT22;8717;53.588;10.176;2022-07-29T12:35:45;32.80;48.30
17202;DHT22;8717;53.588;10.176;2022-07-29T12:38:14;32.80;47.50
17202;DHT22;8717;53.588;10.176;2022-07-29T12:40:42;32.90;47.40
17202;DHT22;8717;53.588;10.176;2022-07-29T12:43:11;32.90;47.30
17202;DHT22;8717;53.588;10.176;2022-07-29T12:45:39;33.00;46.40
17202;DHT22;8717;53.588;10.176;2022-07-29T12:48:09;33.10;45.90
17202;DHT22;8717;53.588;10.176;2022-07-29T12:50:52;33.10;45.80
17202;DHT22;8717;53.588;10.176;2022-07-29T12:53:19;33.30;46.30
17202;DHT22;8717;53.588;10.176;2022-07-29T12:55:48;33.30;46.30
17202;DHT22;8717;53.588;10.176;2022-07-29T12:58:27;33.40;46.10
17202;DHT22;8717;53.588;10.176;2022-07-29T13:01:09;33.50;45.40
17202;DHT22;8717;53.588;10.176;2022-07-29T13:03:51;33.50;44.40
17202;DHT22;8717;53.588;10.176;2022-07-29T13:06:37;33.60;44.20
17202;DHT22;8717;53.588;10.176;2022-07-29T13:09:10;33.60;44.90
17202;DHT22;8717;53.588;10.176;2022-07-29T13:11:44;33.50;44.10
17202;DHT22;8717;53.588;10.176;2022-07-29T13:14:13;33.30;43.10
17202;DHT22;8717;53.588;10.176;2022-07-29T13:17:03;33.10;44.00
17202;DHT22;8717;53.588;10.176;2022-07-29T13:19:40;32.80;45.00
17202;DHT22;8717;53.588;10.176;2022-07-29T13:22:08;32.50;46.00
17202;DHT22;8717;53.588;10.176;2022-07-29T13:24:46;32.30;46.60
17202;DHT22;8717;53.588;10.176;2022-07-29T13:27:13;32.00;48.70
17202;DHT22;8717;53.588;10.176;2022-07-29T13:29:40;31.80;49.60
17202;DHT22;8717;53.588;10.176;2022-07-29T13:32:07;31.60;50.40
17202;DHT22;8717;53.588;10.176;2022-07-29T13:34:34;31.40;50.60
17202;DHT22;8717;53.588;10.176;2022-07-29T13:37:02;31.20;50.80
17202;DHT22;8717;53.588;10.176;2022-07-29T13:39:29;30.90;51.60
17202;DHT22;8717;53.588;10.176;2022-07-29T13:41:56;30.90;51.90
17202;DHT22;8717;53.588;10.176;2022-07-29T13:44:22;30.70;51.50
17202;DHT22;8717;53.588;10.176;2022-07-29T13:46:49;30.60;51.70
17202;DHT22;8717;53.588;10.176;2022-07-29T13:49:16;30.40;51.80
17202;DHT22;8717;53.588;10.176;2022-07-29T13:51:43;30.00;52.20
17202;DHT22;8717;53.588;10.176;2022-07-29T13:54:11;29.70;52.40
17202;DHT22;8717;53.588;10.176;2022-07-29T13:56:38;29.60;53.40
17202;DHT22;8717;53.588;10.176;2022-07-29T13:59:05;29.40;53.30
17202;DHT22;8717;53.588;10.176;2022-07-29T14:01:33;29.30;53.80
17202;DHT22;8717;53.588;10.176;2022-07-29T14:03:59;29.10;53.90
17202;DHT22;8717;53.588;10.176;2022-07-29T14:06:26;28.90;54.10
17202;DHT22;8717;53.588;10.176;2022-07-29T14:08:53;28.60;54.50
17202;DHT22;8717;53.588;10.176;2022-07-29T14:11:21;28.50;55.10
17202;DHT22;8717;53.588;10.176;2022-07-29T14:13:48;28.20;55.00
17202;DHT22;8717;53.588;10.176;2022-07-29T14:16:15;27.90;55.20
17202;DHT22;8717;53.588;10.176;2022-07-29T14:18:42;27.70;55.70
17202;DHT22;8717;53.588;10.176;2022-07-29T14:21:08;27.40;55.90
17202;DHT22;8717;53.588;10.176;2022-07-29T14:23:36;27.20;56.30
17202;DHT22;8717;53.588;10.176;2022-07-29T14:26:02;26.90;56.70
17202;DHT22;8717;53.588;10.176;2022-07-29T14:28:30;26.80;57.30
17202;DHT22;8717;53.588;10.176;2022-07-29T14:30:57;26.70;57.80
17202;DHT22;8717;53.588;10.176;2022-07-29T14:33:24;26.50;58.00
17202;DHT22;8717;53.588;10.176;2022-07-29T14:35:51;26.40;58.20
17202;DHT22;8717;53.588;10.176;2022-07-29T14:38:17;26.30;59.10
17202;DHT22;8717;53.588;10.176;2022-07-29T14:40:44;26.20;58.30
17202;DHT22;8717;53.588;10.176;2022-07-29T14:43:12;26.10;58.40
17202;DHT22;8717;53.588;10.176;2022-07-29T14:45:40;26.00;58.70
17202;DHT22;8717;53.588;10.176;2022-07-29T14:48:07;25.80;59.80
17202;DHT22;8717;53.588;10.176;2022-07-29T14:50:34;25.70;59.40
17202;DHT22;8717;53.588;10.176;2022-07-29T14:53:01;25.70;59.50
17202;DHT22;8717;53.588;10.176;2022-07-29T14:55:30;25.60;59.60
17202;DHT22;8717;53.588;10.176;2022-07-29T14:57:57;25.60;60.60
17202;DHT22;8717;53.588;10.176;2022-07-29T15:00:24;25.40;60.50
17202;DHT22;8717;53.588;10.176;2022-07-29T15:02:52;25.50;61.00
17202;DHT22;8717;53.588;10.176;2022-07-29T15:05:19;25.40;62.20
17202;DHT22;8717;53.588;10.176;2022-07-29T15:07:46;25.40;62.40
17202;DHT22;8717;53.588;10.176;2022-07-29T15:10:13;25.40;62.50
17202;DHT22;8717;53.588;10.176;2022-07-29T15:12:39;25.50;62.60
17202;DHT22;8717;53.588;10.176;2022-07-29T15:15:07;25.60;62.80
17202;DHT22;8717;53.588;10.176;2022-07-29T15:17:34;25.70;62.60
17202;DHT22;8717;53.588;10.176;2022-07-29T15:20:03;25.80;62.20
17202;DHT22;8717;53.588;10.176;2022-07-29T15:22:30;25.80;62.60
17202;DHT22;8717;53.588;10.176;2022-07-29T15:24:57;25.90;63.00
17202;DHT22;8717;53.588;10.176;2022-07-29T15:27:24;25.90;62.40
17202;DHT22;8717;53.588;10.176;2022-07-29T15:29:52;26.00;62.70
17202;DHT22;8717;53.588;10.176;2022-07-29T15:32:18;26.00;62.50
17202;DHT22;8717;53.588;10.176;2022-07-29T15:34:45;26.10;62.70
17202;DHT22;8717;53.588;10.176;2022-07-29T15:37:14;26.10;62.80
17202;DHT22;8717;53.588;10.176;2022-07-29T15:39:40;26.10;62.60
17202;DHT22;8717;53.588;10.176;2022-07-29T15:42:07;26.20;62.70
17202;DHT22;8717;53.588;10.176;2022-07-29T15:44:34;26.10;63.00